createdAt,value
2023-03-03T16:57:10.058Z,22.00
2023-03-03T16:59:18.646Z,22.10
2023-03-03T17:01:23.740Z,22.20
2023-03-03T17:03:11.101Z,22.30
2023-03-03T17:05:04.911Z,22.40
2023-03-03T17:06:53.064Z,22.40
2023-03-03T17:08:34.593Z,22.40
2023-03-03T17:10:25.591Z,22.40
2023-03-03T17:12:18.911Z,22.50
2023-03-03T17:14:35.992Z,22.40
2023-03-03T17:16:51.878Z,22.50
2023-03-03T17:19:01.691Z,22.40
2023-03-03T17:21:00.588Z,22.50
2023-03-03T17:22:47.757Z,22.50
2023-03-03T17:24:52.378Z,22.50
2023-03-03T17:26:40.673Z,22.60
2023-03-03T17:28:22.114Z,22.50
2023-03-03T17:30:12.635Z,22.30
2023-03-03T17:32:12.623Z,22.20
2023-03-03T17:34:09.297Z,22.00
2023-03-03T17:36:09.562Z,22.00
2023-03-03T17:38:00.441Z,21.90
2023-03-03T17:39:50.782Z,21.80
2023-03-03T17:42:09.862Z,21.80
2023-03-03T17:43:57.408Z,21.80
2023-03-03T17:45:40.964Z,21.70
2023-03-03T17:47:31.076Z,21.70
2023-03-03T17:49:44.015Z,21.70
2023-03-03T17:51:35.992Z,21.70
2023-03-03T17:53:43.578Z,21.70
2023-03-03T17:55:30.744Z,21.70
2023-03-03T17:57:25.623Z,21.70
2023-03-03T17:59:30.077Z,21.70
2023-03-03T18:01:39.146Z,21.70
2023-03-03T18:03:34.747Z,21.70
2023-03-03T18:05:46.235Z,21.70
2023-03-03T18:07:40.522Z,21.70
2023-03-03T18:09:25.599Z,21.70
2023-03-03T18:11:20.790Z,21.70
2023-03-03T18:13:22.460Z,21.70
2023-03-03T18:15:19.382Z,21.70
2023-03-03T18:17:22.500Z,21.70
2023-03-03T18:19:25.369Z,21.80
2023-03-03T18:21:16.598Z,21.80
2023-03-03T18:22:58.175Z,21.80
2023-03-03T18:24:49.385Z,21.80
2023-03-03T18:26:30.877Z,21.80
2023-03-03T18:28:20.179Z,21.80
2023-03-03T18:30:24.545Z,21.80
2023-03-03T18:32:40.091Z,21.80
2023-03-03T18:34:21.576Z,21.80
2023-03-03T18:36:27.302Z,21.80
2023-03-03T18:38:17.806Z,21.80
2023-03-03T18:40:02.242Z,21.70
2023-03-03T18:42:23.348Z,21.70
2023-03-03T18:44:29.676Z,21.70
2023-03-03T18:46:19.987Z,21.70
2023-03-03T18:48:01.558Z,21.70
2023-03-03T18:50:03.865Z,21.70
2023-03-03T18:51:45.797Z,21.70
2023-03-03T18:53:30.853Z,21.70
2023-03-03T18:55:12.308Z,21.70
2023-03-03T18:56:53.828Z,21.70
2023-03-03T18:58:36.928Z,21.70
2023-03-03T19:00:27.366Z,21.70
2023-03-03T19:02:33.221Z,21.70
2023-03-03T19:04:16.250Z,21.70
2023-03-03T19:05:58.512Z,21.70
2023-03-03T19:07:39.948Z,21.70
2023-03-03T19:09:46.466Z,21.70
2023-03-03T19:11:49.834Z,21.70
2023-03-03T19:13:34.263Z,21.70
2023-03-03T19:15:35.684Z,21.80
2023-03-03T19:17:17.407Z,21.70
2023-03-03T19:19:00.387Z,21.80
2023-03-03T19:20:46.170Z,21.80
2023-03-03T19:22:29.910Z,21.80
2023-03-03T19:24:40.678Z,21.80
2023-03-03T19:26:24.913Z,20.00
2023-03-03T19:28:15.378Z,19.20
2023-03-03T19:30:22.815Z,18.20
2023-03-03T19:32:13.489Z,17.30
2023-03-03T19:34:19.189Z,17.20
2023-03-03T19:36:22.471Z,16.60
2023-03-03T19:41:40.566Z,17.90
2023-03-03T19:45:23.449Z,18.70
2023-03-03T19:47:25.352Z,19.00
2023-03-03T19:49:22.253Z,19.20
2023-03-03T19:51:20.632Z,19.40
2023-03-03T19:53:16.942Z,19.50
2023-03-03T19:55:29.094Z,19.70
2023-03-03T19:57:49.609Z,19.80
2023-03-03T19:59:42.825Z,20.00
2023-03-03T20:01:36.675Z,20.10
2023-03-03T20:03:39.137Z,20.20
2023-03-03T20:05:32.440Z,20.20
2023-03-03T20:07:28.839Z,20.30
2023-03-03T20:09:33.561Z,20.40
2023-03-03T20:11:37.785Z,20.50
2023-03-03T20:13:25.352Z,20.50
2023-03-03T20:15:14.957Z,20.60
2023-03-03T20:16:58.247Z,20.60
2023-03-03T20:19:01.406Z,20.70
2023-03-03T20:21:01.049Z,20.70
2023-03-03T20:23:05.458Z,20.80
2023-03-03T20:25:15.481Z,20.80
2023-03-03T20:27:00.592Z,20.90
2023-03-03T20:28:53.796Z,20.90
2023-03-03T20:30:58.826Z,20.90
2023-03-03T20:33:04.886Z,21.00
2023-03-03T20:34:49.321Z,21.00
2023-03-03T20:36:33.785Z,21.10
2023-03-03T20:38:52.949Z,21.10
2023-03-03T20:40:37.051Z,21.10
2023-03-03T20:42:36.816Z,21.10
2023-03-03T20:44:47.877Z,21.20
2023-03-03T20:48:46.839Z,21.80
2023-03-03T20:50:45.809Z,22.20
2023-03-03T20:53:02.245Z,22.30
2023-03-03T20:55:10.606Z,22.60
2023-03-03T21:03:15.613Z,23.20
2023-03-03T21:05:26.638Z,23.30
2023-03-03T21:07:08.253Z,23.40
2023-03-03T21:08:56.859Z,23.40
2023-03-03T21:10:39.849Z,23.40
2023-03-03T21:12:28.901Z,23.40
2023-03-03T21:14:22.050Z,23.50
2023-03-03T21:16:26.413Z,23.50
2023-03-03T21:18:22.112Z,23.60
2023-03-03T21:20:26.926Z,23.60
2023-03-03T21:22:09.696Z,23.70
2023-03-03T21:23:51.283Z,23.70
2023-03-03T21:25:47.566Z,23.70
2023-03-03T21:27:33.220Z,23.70
2023-03-03T21:29:28.775Z,23.80
2023-03-03T21:31:13.706Z,23.70
2023-03-03T21:32:55.332Z,23.60
2023-03-03T21:34:38.315Z,23.60
2023-03-03T21:36:32.894Z,23.50
2023-03-03T21:38:18.472Z,23.50
2023-03-03T21:40:24.978Z,23.50
2023-03-03T21:42:16.556Z,23.60
2023-03-03T21:43:58.225Z,23.70
2023-03-03T21:45:42.217Z,23.70
2023-03-03T21:47:27.054Z,23.80
